Time;durP1;ratioP1;P1;durP2;ratioP2;P2;SDS_P1;SDS_P2;PMS_P1;PMS_P2;Temp;Humidity;BMP_temperature;BMP_pressure;BME280_temperature;BME280_humidity;BME280_pressure;Samples;Min_cycle;Max_cycle;Signal;HPM_P1;HPM_P2
2022/07/30 00:00:54;;;;;;;3.43;3.23;;;22.00;38.30;;;;;;10430587;28;20225;-72
2022/07/30 00:05:57;;;;;;;3.93;3.63;;;21.90;39.00;;;;;;10429206;28;20217;-72
2022/07/30 00:11:00;;;;;;;4.57;3.60;;;21.90;38.20;;;;;;10427033;28;20233;-72
2022/07/30 00:16:06;;;;;;;3.40;3.10;;;21.90;38.20;;;;;;10423305;28;20219;-72
2022/07/30 00:21:09;;;;;;;3.27;3.07;;;21.90;39.20;;;;;;10429323;28;20240;-72
2022/07/30 00:26:21;;;;;;;3.43;3.23;;;22.00;38.30;;;;;;10429988;28;20240;-72
2022/07/30 00:31:26;;;;;;;3.27;2.97;;;22.00;38.30;;;;;;10422690;28;20236;-72
2022/07/30 00:36:29;;;;;;;3.17;2.97;;;22.00;39.40;;;;;;10431362;28;20742;-72
2022/07/30 00:41:33;;;;;;;3.37;3.07;;;22.00;38.30;;;;;;10425653;28;20236;-72
2022/07/30 00:46:39;;;;;;;3.63;3.43;;;22.00;38.30;;;;;;10426037;28;20221;-73
2022/07/30 00:51:42;;;;;;;3.87;3.57;;;22.10;39.40;;;;;;10441933;28;20793;-72
2022/07/30 00:56:46;;;;;;;3.17;2.97;;;22.10;38.40;;;;;;10421396;28;20225;-72
2022/07/30 01:01:51;;;;;;;3.70;3.50;;;22.20;38.40;;;;;;10434325;28;20233;-72
2022/07/30 01:06:54;;;;;;;3.40;3.20;;;22.20;39.20;;;;;;10425810;28;20231;-72
2022/07/30 01:11:59;;;;;;;4.97;3.70;;;22.30;38.50;;;;;;10425790;28;20701;-72
2022/07/30 01:17:04;;;;;;;4.20;3.80;;;22.20;38.50;;;;;;10426700;28;20860;-72
2022/07/30 01:22:14;;;;;;;4.13;3.83;;;22.20;39.10;;;;;;10430723;28;20224;-72
2022/07/30 01:27:22;;;;;;;4.10;3.70;;;22.20;39.60;;;;;;10426617;28;20225;-72
2022/07/30 01:32:27;;;;;;;3.57;3.37;;;22.10;40.30;;;;;;10429275;28;20956;-72
2022/07/30 01:37:33;;;;;;;3.77;3.33;;;22.00;38.40;;;;;;10428947;28;20638;-72
2022/07/30 01:42:39;;;;;;;3.53;3.23;;;21.90;39.30;;;;;;10423153;28;20220;-72
2022/07/30 01:47:45;;;;;;;3.27;2.97;;;21.80;39.50;;;;;;10418044;28;20218;-72
2022/07/30 01:52:50;;;;;;;3.60;3.30;;;21.70;39.10;;;;;;10423083;28;20229;-72
2022/07/30 01:57:56;;;;;;;3.10;2.90;;;21.70;39.10;;;;;;10423093;28;20604;-72
2022/07/30 02:02:59;;;;;;;3.03;2.83;;;21.70;39.70;;;;;;10429013;28;20256;-72
2022/07/30 02:08:10;;;;;;;2.77;2.57;;;21.70;38.70;;;;;;10432099;28;20228;-72
2022/07/30 02:13:20;;;;;;;3.03;2.83;;;21.70;39.80;;;;;;10429842;28;20221;-72
2022/07/30 02:18:30;;;;;;;3.07;2.87;;;21.60;40.10;;;;;;10437466;28;20231;-72
2022/07/30 02:23:36;;;;;;;2.80;2.60;;;21.50;40.00;;;;;;10432623;28;20316;-72
2022/07/30 02:28:45;;;;;;;3.00;2.80;;;21.60;39.60;;;;;;10433997;28;20239;-72
2022/07/30 02:33:50;;;;;;;2.20;2.10;;;21.60;40.00;;;;;;10425527;28;20666;-72
2022/07/30 02:38:54;;;;;;;2.67;2.47;;;21.70;39.30;;;;;;10434929;28;20223;-72
2022/07/30 02:44:00;;;;;;;2.57;2.47;;;21.70;39.00;;;;;;10434418;28;20608;-72
2022/07/30 02:49:05;;;;;;;3.13;2.80;;;21.80;39.50;;;;;;10429057;28;20224;-72
2022/07/30 02:54:09;;;;;;;3.23;3.03;;;21.80;39.10;;;;;;10432410;28;20712;-72
2022/07/30 02:59:17;;;;;;;3.67;3.37;;;21.80;39.10;;;;;;10437122;28;20599;-72
2022/07/30 03:04:21;;;;;;;3.60;3.40;;;21.80;39.40;;;;;;10436869;28;20222;-72
2022/07/30 03:09:26;;;;;;;4.00;3.70;;;21.70;39.10;;;;;;10437916;28;20229;-72
2022/07/30 03:14:51;;;;;;;3.63;3.37;;;21.60;39.10;;;;;;10426831;28;20228;-72
2022/07/30 03:19:55;;;;;;;3.77;3.47;;;21.40;39.80;;;;;;10434568;28;20229;-72
2022/07/30 03:24:59;;;;;;;3.90;3.60;;;21.40;39.80;;;;;;10438184;28;20224;-72
2022/07/30 03:30:05;;;;;;;3.80;3.50;;;21.30;39.80;;;;;;10434672;28;20840;-72
2022/07/30 03:35:09;;;;;;;3.87;3.53;;;21.30;40.70;;;;;;10442607;28;20229;-72
2022/07/30 03:40:20;;;;;;;3.70;3.23;;;21.20;40.30;;;;;;10435085;28;20259;-72
2022/07/30 03:45:25;;;;;;;4.13;3.77;;;21.20;40.20;;;;;;10436434;28;20232;-72
2022/07/30 03:50:30;;;;;;;3.57;3.27;;;21.20;41.00;;;;;;10433692;28;20236;-72
2022/07/30 03:55:33;;;;;;;3.90;3.60;;;21.20;40.90;;;;;;10431505;28;20627;-72
2022/07/30 04:00:39;;;;;;;3.73;3.43;;;21.20;40.60;;;;;;10437585;28;20233;-72
2022/07/30 04:05:42;;;;;;;4.43;3.60;;;21.30;41.10;;;;;;10436278;28;20225;-72
2022/07/30 04:10:45;;;;;;;4.03;3.63;;;21.40;40.40;;;;;;10434397;28;20236;-72
2022/07/30 04:15:58;;;;;;;4.97;3.33;;;21.40;40.30;;;;;;10439275;28;20225;-72
2022/07/30 04:21:24;;;;;;;6.77;4.23;;;21.40;41.50;;;;;;10425535;28;20239;-72
2022/07/30 04:26:29;;;;;;;5.40;3.73;;;21.40;40.80;;;;;;10430893;28;20236;-72
2022/07/30 04:31:34;;;;;;;4.97;3.67;;;21.40;40.50;;;;;;10431759;28;20233;-71
2022/07/30 04:36:43;;;;;;;5.10;3.37;;;21.40;40.90;;;;;;10436739;28;20328;-72
2022/07/30 04:41:47;;;;;;;6.80;4.50;;;21.40;40.50;;;;;;10433686;28;20224;-72
2022/07/30 04:46:53;;;;;;;4.23;3.87;;;21.50;40.70;;;;;;10424987;28;20232;-72
2022/07/30 04:51:57;;;;;;;4.00;3.60;;;21.40;41.20;;;;;;10433916;28;20317;-72
2022/07/30 04:57:01;;;;;;;3.07;2.87;;;21.40;40.90;;;;;;10438493;28;20221;-72
2022/07/30 05:02:09;;;;;;;4.20;3.90;;;21.40;40.60;;;;;;10426222;28;20229;-72
2022/07/30 05:07:13;;;;;;;4.73;4.20;;;21.40;41.90;;;;;;10433815;28;20217;-72
2022/07/30 05:12:17;;;;;;;5.10;4.60;;;21.40;41.30;;;;;;10447525;28;20232;-72
2022/07/30 05:17:21;;;;;;;4.87;4.57;;;21.40;41.00;;;;;;10448600;28;20225;-72
2022/07/30 05:22:26;;;;;;;5.60;4.50;;;21.40;41.80;;;;;;10430108;28;20240;-72
2022/07/30 05:27:29;;;;;;;4.83;4.53;;;21.40;41.20;;;;;;10440437;28;20233;-72
2022/07/30 05:32:34;;;;;;;6.00;5.50;;;21.40;41.30;;;;;;10428726;28;20228;-72
2022/07/30 05:37:38;;;;;;;4.90;4.60;;;21.40;41.90;;;;;;10429517;28;20225;-72
2022/07/30 05:42:41;;;;;;;5.17;4.77;;;21.30;41.30;;;;;;10429319;28;20228;-72
2022/07/30 05:47:47;;;;;;;5.13;4.73;;;21.40;41.50;;;;;;10425866;28;20225;-72
2022/07/30 05:52:50;;;;;;;5.77;5.30;;;21.40;42.30;;;;;;10427524;28;20233;-72
2022/07/30 05:57:53;;;;;;;5.83;5.33;;;21.40;41.90;;;;;;10425502;28;20225;-72
2022/07/30 06:02:58;;;;;;;5.43;5.03;;;21.40;42.20;;;;;;10433027;28;20244;-72
2022/07/30 06:08:01;;;;;;;6.03;5.53;;;21.40;43.00;;;;;;10428304;28;20225;-72
2022/07/30 06:13:04;;;;;;;6.77;6.17;;;21.40;42.30;;;;;;10426364;28;20223;-72
2022/07/30 06:18:09;;;;;;;7.53;6.83;;;21.50;42.60;;;;;;10429410;28;20221;-72
2022/07/30 06:23:12;;;;;;;6.87;6.33;;;21.50;42.90;;;;;;10425156;28;20228;-72
2022/07/30 06:28:16;;;;;;;7.20;6.60;;;21.60;42.50;;;;;;10430647;28;20220;-72
2022/07/30 06:33:41;;;;;;;7.43;6.83;;;21.60;42.60;;;;;;10432536;28;20232;-72
2022/07/30 06:38:45;;;;;;;7.77;7.17;;;21.70;42.90;;;;;;10428129;28;20235;-73
2022/07/30 06:43:49;;;;;;;7.93;7.33;;;21.70;42.40;;;;;;10421755;28;20844;-73
2022/07/30 06:48:54;;;;;;;7.50;6.70;;;21.80;42.60;;;;;;10426536;28;20598;-73
2022/07/30 06:53:57;;;;;;;7.00;6.50;;;21.80;43.30;;;;;;10426022;28;20225;-73
2022/07/30 06:59:00;;;;;;;7.40;6.73;;;21.90;42.90;;;;;;10432142;28;20217;-73
2022/07/30 07:04:05;;;;;;;7.73;7.13;;;22.00;43.00;;;;;;10426862;28;20255;-73
2022/07/30 07:09:08;;;;;;;7.80;6.57;;;22.10;43.80;;;;;;10426177;28;20812;-73
2022/07/30 07:14:12;;;;;;;8.80;5.97;;;22.20;43.10;;;;;;10429595;28;20224;-73
2022/07/30 07:19:17;;;;;;;6.77;6.17;;;22.30;42.90;;;;;;10420818;28;20736;-73
2022/07/30 07:24:40;;;;;;;5.90;5.50;;;22.40;42.70;;;;;;10418170;28;20244;-72
2022/07/30 07:29:43;;;;;;;6.80;6.20;;;22.50;42.40;;;;;;10425921;28;20709;-73
2022/07/30 07:35:08;;;;;;;9.73;6.60;;;22.60;42.10;;;;;;10418410;28;20228;-73
2022/07/30 07:40:13;;;;;;;6.13;5.67;;;22.70;42.30;;;;;;10420701;28;20780;-73
2022/07/30 07:45:16;;;;;;;6.33;5.83;;;22.70;42.20;;;;;;10423881;28;20229;-73
2022/07/30 07:50:21;;;;;;;5.63;5.23;;;22.90;42.10;;;;;;10417610;28;20319;-73
2022/07/30 07:55:25;;;;;;;5.60;5.20;;;23.00;41.90;;;;;;10422114;28;20267;-73
2022/07/30 08:00:28;;;;;;;5.90;5.40;;;23.20;41.60;;;;;;10425971;28;20231;-73
2022/07/30 08:05:33;;;;;;;6.10;5.60;;;23.40;41.50;;;;;;10431696;28;20595;-72
2022/07/30 08:10:56;;;;;;;5.63;5.23;;;23.50;40.90;;;;;;10436217;28;20225;-72
2022/07/30 08:15:59;;;;;;;5.17;4.77;;;23.70;41.00;;;;;;10433400;28;20227;-72
2022/07/30 08:21:04;;;;;;;5.23;4.90;;;23.90;40.50;;;;;;10428632;28;20216;-72
2022/07/30 08:26:07;;;;;;;4.80;4.50;;;24.00;40.10;;;;;;10432191;28;20229;-72
2022/07/30 08:31:11;;;;;;;5.77;5.27;;;24.20;40.20;;;;;;10429780;28;20217;-72
2022/07/30 08:36:15;;;;;;;5.20;4.80;;;24.40;40.40;;;;;;10434523;28;20693;-72
2022/07/30 08:41:20;;;;;;;5.30;4.80;;;24.50;39.60;;;;;;10432347;28;20229;-72
2022/07/30 08:46:25;;;;;;;5.47;4.97;;;24.70;39.70;;;;;;10436217;28;20594;-72
2022/07/30 08:51:29;;;;;;;5.00;4.60;;;24.90;39.30;;;;;;10436640;28;20240;-72
2022/07/30 08:56:34;;;;;;;4.60;4.30;;;25.10;39.10;;;;;;10427013;28;20228;-71
2022/07/30 09:01:37;;;;;;;4.10;3.80;;;25.20;38.90;;;;;;10426110;28;20238;-72
2022/07/30 09:06:41;;;;;;;3.70;3.50;;;25.30;37.70;;;;;;10427621;28;20224;-71
2022/07/30 09:11:45;;;;;;;4.10;3.80;;;25.40;36.90;;;;;;10430815;28;20228;-71
2022/07/30 09:16:56;;;;;;;4.40;4.10;;;25.50;37.20;;;;;;10431091;28;20221;-72
2022/07/30 09:22:02;;;;;;;4.20;3.80;;;25.60;35.30;;;;;;10431211;28;20228;-71
2022/07/30 09:27:05;;;;;;;4.70;4.30;;;25.70;36.00;;;;;;10429146;28;20214;-72
2022/07/30 09:32:09;;;;;;;4.60;4.30;;;25.90;36.20;;;;;;10434249;28;20325;-71
2022/07/30 09:37:19;;;;;;;4.30;3.90;;;25.90;35.60;;;;;;10420058;28;20230;-72
2022/07/30 09:42:23;;;;;;;4.80;4.40;;;26.00;34.10;;;;;;10428303;28;20239;-73
2022/07/30 09:47:30;;;;;;;5.20;4.70;;;26.10;34.70;;;;;;10425693;28;20233;-72
2022/07/30 09:52:36;;;;;;;5.30;4.80;;;26.20;33.60;;;;;;10421995;28;21605;-73
2022/07/30 09:57:56;;;;;;;4.67;4.30;;;26.40;33.80;;;;;;10414024;28;20725;-75
2022/07/30 10:03:02;;;;;;;4.30;4.00;;;26.50;33.20;;;;;;10410202;28;20248;-74
2022/07/30 10:08:40;;;;;;;4.90;4.50;;;26.70;33.80;;;;;;10405079;28;21044;-75
2022/07/30 10:13:44;;;;;;;5.83;4.30;;;26.80;31.60;;;;;;10413765;28;20228;-74
2022/07/30 10:18:48;;;;;;;4.60;4.20;;;26.80;32.70;;;;;;10421192;28;20223;-75
2022/07/30 10:23:54;;;;;;;5.53;4.10;;;26.90;32.70;;;;;;10426730;28;20225;-75
2022/07/30 10:29:00;;;;;;;3.83;3.53;;;26.90;31.50;;;;;;10441096;28;20332;-75
2022/07/30 10:34:04;;;;;;;3.43;3.13;;;27.10;31.20;;;;;;10435489;28;20244;-75
2022/07/30 10:39:15;;;;;;;3.57;3.27;;;27.10;30.70;;;;;;10437857;28;20225;-75
2022/07/30 10:44:47;;;;;;;3.80;2.80;;;27.20;29.50;;;;;;10434809;28;20236;-75
2022/07/30 10:50:10;;;;;;;2.80;2.60;;;27.20;29.90;;;;;;10441075;28;20222;-75
2022/07/30 10:55:16;;;;;;;2.83;2.63;;;27.20;28.70;;;;;;10440516;28;20286;-75
2022/07/30 11:00:19;;;;;;;3.03;2.60;;;27.20;28.20;;;;;;10438099;28;20233;-75
2022/07/30 11:05:27;;;;;;;4.27;2.50;;;27.20;28.30;;;;;;10439376;28;20245;-75
2022/07/30 11:10:49;;;;;;;3.10;2.77;;;27.20;29.00;;;;;;10443136;28;20278;-76
2022/07/30 11:15:58;;;;;;;2.97;2.57;;;27.40;28.90;;;;;;10434544;28;20229;-75
2022/07/30 11:21:15;;;;;;;2.97;2.67;;;27.60;28.30;;;;;;10436379;28;20220;-75
2022/07/30 11:27:00;;;;;;;2.67;2.00;;;27.80;27.00;;;;;;10433588;28;20229;-75
2022/07/30 11:32:28;;;;;;;2.30;2.10;;;27.90;26.40;;;;;;10403548;28;20221;-76
2022/07/30 11:37:55;;;;;;;2.57;2.37;;;28.10;26.70;;;;;;10428574;28;20240;-75
2022/07/30 11:43:23;;;;;;;2.20;2.00;;;28.10;24.80;;;;;;10424959;28;20235;-74
2022/07/30 11:48:41;;;;;;;1.90;1.80;;;28.10;23.50;;;;;;10436212;28;20217;-74
2022/07/30 11:53:45;;;;;;;2.17;1.97;;;28.10;25.30;;;;;;10432003;28;20226;-74
2022/07/30 11:58:49;;;;;;;2.20;2.10;;;28.10;26.00;;;;;;10429443;28;20693;-75
2022/07/30 12:03:55;;;;;;;2.10;2.00;;;28.00;25.00;;;;;;10422171;28;20245;-75
2022/07/30 12:08:59;;;;;;;2.33;2.07;;;27.90;24.20;;;;;;10430471;28;20220;-75
2022/07/30 12:14:03;;;;;;;2.00;1.90;;;27.80;24.60;;;;;;10414808;28;20233;-75
2022/07/30 12:19:08;;;;;;;2.00;1.90;;;27.80;24.80;;;;;;10423944;28;20309;-74
2022/07/30 12:24:12;;;;;;;4.10;2.00;;;27.90;24.40;;;;;;10423711;28;20236;-73
2022/07/30 12:29:17;;;;;;;2.17;1.97;;;28.10;23.80;;;;;;10418051;28;20231;-75
2022/07/30 12:34:23;;;;;;;3.13;2.13;;;28.20;23.50;;;;;;10423453;28;20229;-75
2022/07/30 12:39:27;;;;;;;2.17;2.00;;;28.30;22.80;;;;;;10420275;28;20232;-74
2022/07/30 12:44:43;;;;;;;2.00;1.90;;;28.30;23.30;;;;;;10416272;28;20229;-73
2022/07/30 12:49:47;;;;;;;2.17;2.00;;;28.50;21.80;;;;;;10416170;28;20231;-73
2022/07/30 12:55:04;;;;;;;2.20;1.97;;;28.60;22.50;;;;;;10413367;28;20225;-72
2022/07/30 13:00:08;;;;;;;2.00;1.90;;;28.60;21.90;;;;;;10418940;28;20225;-74
2022/07/30 13:05:13;;;;;;;1.90;1.80;;;28.70;22.20;;;;;;10407192;28;20217;-75
2022/07/30 13:10:17;;;;;;;2.20;2.00;;;28.70;21.10;;;;;;10411484;28;20237;-73
2022/07/30 13:15:21;;;;;;;2.00;1.90;;;28.70;21.70;;;;;;10413974;28;20669;-74
2022/07/30 13:20:26;;;;;;;2.17;1.97;;;28.70;21.30;;;;;;10416832;28;20234;-73
2022/07/30 13:25:29;;;;;;;1.73;1.63;;;28.70;20.50;;;;;;10409738;28;20317;-73
2022/07/30 13:30:42;;;;;;;1.87;1.77;;;28.70;21.10;;;;;;10418142;28;20697;-73
2022/07/30 13:35:47;;;;;;;5.30;1.97;;;28.70;21.10;;;;;;10420274;28;20247;-73
2022/07/30 13:40:50;;;;;;;2.27;1.87;;;28.60;20.60;;;;;;10415578;28;20229;-73
2022/07/30 13:45:54;;;;;;;2.37;2.10;;;28.70;21.70;;;;;;10420635;28;20217;-73
2022/07/30 13:51:05;;;;;;;2.90;2.10;;;28.80;21.10;;;;;;10436184;28;20685;-74
2022/07/30 13:56:08;;;;;;;2.97;1.80;;;28.90;20.50;;;;;;10423998;28;20832;-74
2022/07/30 14:01:15;;;;;;;2.10;1.90;;;29.00;20.60;;;;;;10416616;28;20248;-72
2022/07/30 14:06:21;;;;;;;1.93;1.83;;;29.00;20.60;;;;;;10422816;28;20964;-75
2022/07/30 14:11:25;;;;;;;2.23;1.87;;;29.00;19.60;;;;;;10425680;28;20235;-73
2022/07/30 14:16:28;;;;;;;1.97;1.87;;;28.90;19.90;;;;;;10438104;28;20599;-75
2022/07/30 14:21:49;;;;;;;1.80;1.70;;;28.80;20.50;;;;;;10405289;28;20225;-73
2022/07/30 14:26:52;;;;;;;2.00;1.90;;;28.90;19.90;;;;;;10401640;28;20233;-73
2022/07/30 14:32:00;;;;;;;2.27;2.07;;;29.00;20.10;;;;;;10399985;28;20734;-73
2022/07/30 14:37:05;;;;;;;2.07;1.90;;;29.00;19.90;;;;;;10401711;28;20751;-73
2022/07/30 14:42:11;;;;;;;2.13;2.03;;;28.90;18.90;;;;;;10401616;28;20321;-73
2022/07/30 14:47:15;;;;;;;3.47;1.87;;;28.70;19.40;;;;;;10401792;28;20476;-73
2022/07/30 14:52:20;;;;;;;2.20;2.00;;;28.60;19.70;;;;;;10401714;28;20271;-73
2022/07/30 14:57:23;;;;;;;2.17;1.90;;;28.60;19.50;;;;;;10401587;28;20234;-73
2022/07/30 15:02:26;;;;;;;2.80;1.90;;;28.50;19.90;;;;;;10401480;28;20230;-73
2022/07/30 15:07:31;;;;;;;2.10;2.00;;;28.40;19.80;;;;;;10402044;28;20706;-74
2022/07/30 15:12:36;;;;;;;2.30;2.00;;;28.40;19.10;;;;;;10444300;28;20236;-76
2022/07/30 15:17:40;;;;;;;2.17;2.07;;;28.40;19.90;;;;;;10440408;28;20865;-73
2022/07/30 15:22:44;;;;;;;2.67;2.00;;;28.50;19.30;;;;;;10422329;28;20229;-76
2022/07/30 15:27:48;;;;;;;2.20;2.00;;;28.50;18.80;;;;;;10442905;28;20228;-75
2022/07/30 15:32:53;;;;;;;2.27;2.10;;;28.60;19.30;;;;;;10430148;28;20232;-75
2022/07/30 15:37:57;;;;;;;2.37;2.00;;;28.70;18.80;;;;;;10431576;28;20239;-76
2022/07/30 15:43:01;;;;;;;1.90;1.80;;;28.80;18.50;;;;;;10458068;28;20690;-76
2022/07/30 15:48:10;;;;;;;2.00;1.90;;;28.80;18.70;;;;;;10446704;28;20249;-75
2022/07/30 15:53:28;;;;;;;2.17;1.97;;;28.90;18.90;;;;;;10441344;28;20221;-76
2022/07/30 15:58:32;;;;;;;3.93;2.00;;;28.90;18.20;;;;;;10434698;28;20227;-76
2022/07/30 16:03:35;;;;;;;2.43;2.07;;;29.00;18.60;;;;;;10439172;28;20753;-76
2022/07/30 16:08:40;;;;;;;2.17;1.97;;;29.10;18.10;;;;;;10442026;28;20224;-76
2022/07/30 16:13:43;;;;;;;2.50;2.00;;;29.20;17.80;;;;;;10417773;28;20550;-76
2022/07/30 16:18:46;;;;;;;2.00;1.87;;;29.30;17.90;;;;;;10395639;28;20233;-76
2022/07/30 16:23:52;;;;;;;3.30;2.00;;;29.30;17.70;;;;;;10395417;28;20276;-76
2022/07/30 16:28:55;;;;;;;1.93;1.83;;;29.40;17.10;;;;;;10417597;28;20240;-76
2022/07/30 16:33:58;;;;;;;2.70;2.00;;;29.40;17.70;;;;;;10441127;28;20773;-76
2022/07/30 16:39:03;;;;;;;2.20;2.00;;;29.40;17.20;;;;;;10425486;28;20224;-76
2022/07/30 16:44:07;;;;;;;2.03;1.93;;;29.50;16.80;;;;;;10435248;28;20232;-76
2022/07/30 16:49:10;;;;;;;3.33;2.00;;;29.40;16.90;;;;;;10434213;28;20227;-76
2022/07/30 16:54:15;;;;;;;2.10;2.00;;;29.30;17.00;;;;;;10437310;28;20251;-76
2022/07/30 16:59:18;;;;;;;2.03;1.90;;;29.20;16.80;;;;;;10436419;28;20236;-75
2022/07/30 17:04:21;;;;;;;2.67;1.87;;;29.10;17.10;;;;;;10428854;28;20240;-76
2022/07/30 17:09:26;;;;;;;1.90;1.80;;;29.00;17.00;;;;;;10430427;28;20229;-80
2022/07/30 17:14:38;;;;;;;2.50;2.00;;;28.90;16.80;;;;;;10440208;28;20225;-76
2022/07/30 17:19:41;;;;;;;2.10;1.90;;;28.80;17.10;;;;;;10437679;28;20307;-76
2022/07/30 17:24:46;;;;;;;2.30;2.10;;;28.70;17.20;;;;;;10428780;28;20595;-76
2022/07/30 17:29:49;;;;;;;3.23;2.07;;;28.70;17.00;;;;;;10437725;28;20229;-76
2022/07/30 17:34:53;;;;;;;1.90;1.80;;;28.60;17.30;;;;;;10433635;28;20229;-76
2022/07/30 17:39:58;;;;;;;3.20;2.10;;;28.50;17.40;;;;;;10416537;28;20225;-76
2022/07/30 17:45:22;;;;;;;2.47;2.07;;;28.50;17.30;;;;;;10428720;28;20811;-75
2022/07/30 17:50:25;;;;;;;2.00;1.90;;;28.50;17.50;;;;;;10422666;28;20791;-76
2022/07/30 17:55:29;;;;;;;3.60;1.90;;;28.50;17.70;;;;;;10433885;28;20229;-76
2022/07/30 18:00:34;;;;;;;1.97;1.87;;;28.50;17.80;;;;;;10426134;28;20240;-76
2022/07/30 18:05:40;;;;;;;1.93;1.83;;;28.50;17.80;;;;;;10426168;28;20278;-76
2022/07/30 18:10:45;;;;;;;2.00;1.90;;;28.50;17.50;;;;;;10426811;28;20260;-76
2022/07/30 18:15:48;;;;;;;2.13;2.00;;;28.40;17.60;;;;;;10430669;28;20983;-76
2022/07/30 18:20:51;;;;;;;2.33;1.90;;;28.40;17.80;;;;;;10427429;28;20226;-75
2022/07/30 18:25:56;;;;;;;2.30;2.10;;;28.40;17.90;;;;;;10430282;28;21098;-75
2022/07/30 18:30:59;;;;;;;2.13;1.90;;;28.40;17.80;;;;;;10426597;28;20229;-76
2022/07/30 18:36:03;;;;;;;2.57;2.37;;;28.30;17.90;;;;;;10429233;28;20221;-76
2022/07/30 18:41:07;;;;;;;2.87;2.63;;;28.30;18.30;;;;;;10428304;28;20221;-76
2022/07/30 18:46:11;;;;;;;2.47;2.37;;;28.20;18.40;;;;;;10431257;28;20221;-76
2022/07/30 18:51:15;;;;;;;3.17;2.70;;;28.10;18.60;;;;;;10438512;28;20232;-76
2022/07/30 18:56:19;;;;;;;3.50;3.20;;;28.10;18.90;;;;;;10433274;28;20574;-75
2022/07/30 19:01:22;;;;;;;3.40;3.10;;;28.00;19.10;;;;;;10427376;28;20235;-75
2022/07/30 19:06:26;;;;;;;4.57;4.17;;;27.90;19.20;;;;;;10429565;28;20237;-75
2022/07/30 19:11:31;;;;;;;6.13;5.63;;;27.80;19.40;;;;;;10423824;28;20616;-75
2022/07/30 19:16:34;;;;;;;3.80;3.50;;;27.70;19.90;;;;;;10427791;28;20599;-75
2022/07/30 19:21:38;;;;;;;3.40;3.10;;;27.60;19.90;;;;;;10429090;28;20255;-76
2022/07/30 19:26:43;;;;;;;6.50;5.90;;;27.50;19.80;;;;;;10427012;28;20598;-75
2022/07/30 19:31:46;;;;;;;12.77;9.97;;;27.40;19.80;;;;;;10421782;28;20256;-75
2022/07/30 19:36:49;;;;;;;5.67;5.07;;;27.30;19.70;;;;;;10420133;28;20608;-75
2022/07/30 19:41:54;;;;;;;6.07;4.10;;;27.30;19.90;;;;;;10440340;28;20228;-77
2022/07/30 19:46:57;;;;;;;3.83;3.43;;;27.20;20.50;;;;;;10431571;28;20227;-77
2022/07/30 19:52:02;;;;;;;3.90;2.90;;;27.20;20.40;;;;;;10430186;28;20312;-78
2022/07/30 19:57:26;;;;;;;2.60;2.40;;;27.10;21.00;;;;;;10432731;28;20225;-78
2022/07/30 20:02:50;;;;;;;2.83;2.40;;;26.90;20.90;;;;;;10453891;28;20709;-78
2022/07/30 20:07:53;;;;;;;2.73;2.60;;;26.80;20.90;;;;;;10416373;28;20213;-73
2022/07/30 20:12:59;;;;;;;3.20;3.00;;;26.70;21.00;;;;;;10425015;28;20263;-73
2022/07/30 20:18:08;;;;;;;3.70;3.40;;;26.60;21.30;;;;;;10410699;28;20316;-73
2022/07/30 20:23:12;;;;;;;3.20;3.00;;;26.40;21.30;;;;;;10417512;28;20229;-74
2022/07/30 20:28:17;;;;;;;3.30;3.07;;;26.30;21.60;;;;;;10430180;28;20238;-74
2022/07/30 20:33:20;;;;;;;3.57;3.20;;;26.20;21.90;;;;;;10425100;28;20243;-74
2022/07/30 20:38:45;;;;;;;3.13;2.93;;;26.10;21.90;;;;;;10423131;28;20263;-74
2022/07/30 20:43:50;;;;;;;3.60;3.30;;;26.10;22.50;;;;;;10426566;28;20256;-73
2022/07/30 20:48:57;;;;;;;2.87;2.67;;;26.00;22.50;;;;;;10424197;28;20387;-73
2022/07/30 20:54:00;;;;;;;3.10;2.80;;;25.70;22.10;;;;;;10427787;28;20849;-74
2022/07/30 20:59:06;;;;;;;40.60;36.40;;;25.50;22.50;;;;;;10410065;28;20263;-74
2022/07/30 21:04:09;;;;;;;24.90;22.17;;;25.40;23.10;;;;;;10427300;28;21009;-74
2022/07/30 21:09:28;;;;;;;22.40;20.00;;;25.30;23.00;;;;;;10420598;28;20600;-74
2022/07/30 21:14:56;;;;;;;13.37;11.87;;;25.20;23.20;;;;;;10428132;28;20252;-73
2022/07/30 21:20:00;;;;;;;6.67;6.17;;;25.10;23.90;;;;;;10426387;28;20239;-73
2022/07/30 21:25:04;;;;;;;5.20;4.17;;;25.00;23.50;;;;;;10428892;28;20608;-73
2022/07/30 21:30:12;;;;;;;3.50;3.27;;;24.80;23.70;;;;;;10419828;28;20225;-73
2022/07/30 21:35:15;;;;;;;3.40;3.13;;;24.70;24.90;;;;;;10419121;28;20235;-73
2022/07/30 21:40:21;;;;;;;4.23;3.60;;;24.50;23.80;;;;;;10424141;28;20450;-74
2022/07/30 21:45:28;;;;;;;3.50;3.20;;;24.40;24.30;;;;;;10423729;28;20825;-73
2022/07/30 21:50:41;;;;;;;4.53;4.20;;;24.30;25.00;;;;;;10424740;28;20290;-73
2022/07/30 21:55:45;;;;;;;3.43;3.20;;;24.20;24.60;;;;;;10422706;28;20312;-73
2022/07/30 22:01:02;;;;;;;3.37;3.17;;;24.20;24.80;;;;;;10423338;28;20328;-73
2022/07/30 22:06:18;;;;;;;3.50;3.20;;;24.10;25.60;;;;;;10419374;28;20334;-73
2022/07/30 22:11:21;;;;;;;4.00;3.70;;;24.10;25.00;;;;;;10420200;28;20233;-73
2022/07/30 22:16:26;;;;;;;3.30;3.10;;;24.00;25.10;;;;;;10433101;28;20240;-73
2022/07/30 22:21:30;;;;;;;4.00;3.70;;;24.00;25.60;;;;;;10437259;28;20237;-73
2022/07/30 22:26:33;;;;;;;4.27;3.93;;;23.80;25.30;;;;;;10433550;28;20225;-73
2022/07/30 22:31:37;;;;;;;3.63;3.40;;;23.70;25.30;;;;;;10420334;28;20240;-73
2022/07/30 22:36:42;;;;;;;3.73;3.43;;;23.40;25.90;;;;;;10435468;28;20228;-73
2022/07/30 22:41:47;;;;;;;3.50;3.30;;;23.20;25.70;;;;;;10429210;28;20233;-73
2022/07/30 22:46:52;;;;;;;3.63;3.30;;;23.00;25.90;;;;;;10428125;28;20232;-73
2022/07/30 22:51:58;;;;;;;3.40;3.10;;;22.70;26.70;;;;;;10433119;28;20237;-73
2022/07/30 22:57:21;;;;;;;3.53;3.23;;;22.60;26.60;;;;;;10432808;28;20754;-73
2022/07/30 23:02:27;;;;;;;3.60;3.30;;;22.40;26.80;;;;;;10426994;28;20248;-73
2022/07/30 23:07:30;;;;;;;4.37;3.10;;;22.40;26.90;;;;;;10426051;28;20217;-73
2022/07/30 23:12:42;;;;;;;3.70;3.40;;;22.40;27.00;;;;;;10431126;28;20739;-73
2022/07/30 23:17:47;;;;;;;4.13;3.80;;;22.40;27.00;;;;;;10432905;28;20228;-73
2022/07/30 23:22:51;;;;;;;3.27;2.97;;;22.40;27.30;;;;;;10422565;28;20233;-73
2022/07/30 23:27:54;;;;;;;3.90;3.60;;;22.30;26.90;;;;;;10426024;28;20221;-73
2022/07/30 23:32:59;;;;;;;3.83;3.47;;;22.30;26.90;;;;;;10419618;28;20232;-73
2022/07/30 23:38:02;;;;;;;3.70;3.43;;;22.30;27.30;;;;;;10386827;28;20365;-73
2022/07/30 23:43:05;;;;;;;3.60;3.30;;;22.30;26.90;;;;;;10428879;28;20233;-73
2022/07/30 23:48:10;;;;;;;3.90;3.70;;;22.20;26.90;;;;;;10425517;28;20248;-73
2022/07/30 23:53:13;;;;;;;3.77;3.40;;;22.20;27.80;;;;;;10434580;28;20233;-73
2022/07/30 23:58:17;;;;;;;3.80;3.60;;;22.00;27.40;;;;;;10426023;28;20232;-73
